createdAt,value
2022-08-17T00:00:43.513Z,29.65
2022-08-17T00:03:39.796Z,33.08
2022-08-17T00:06:28.925Z,33.25
2022-08-17T00:09:18.363Z,32.35
2022-08-17T00:12:41.694Z,29.52
2022-08-17T00:15:12.097Z,31.70
2022-08-17T00:17:57.824Z,32.72
2022-08-17T00:20:44.017Z,33.35
2022-08-17T00:23:29.702Z,31.83
2022-08-17T00:26:16.166Z,30.40
2022-08-17T00:29:21.721Z,33.63
2022-08-17T00:33:12.396Z,33.28
2022-08-17T00:35:17.558Z,31.70
2022-08-17T00:38:06.342Z,37.38
2022-08-17T00:40:59.163Z,30.92
2022-08-17T00:43:51.894Z,30.02
2022-08-17T00:46:43.768Z,34.08
2022-08-17T00:49:31.314Z,32.45
2022-08-17T00:52:22.937Z,34.53
2022-08-17T00:55:10.415Z,31.15
2022-08-17T00:58:00.059Z,32.17
2022-08-17T01:00:47.709Z,34.17
2022-08-17T01:03:36.593Z,33.15
2022-08-17T01:06:24.189Z,35.97
2022-08-17T01:09:10.446Z,32.70
2022-08-17T01:11:56.455Z,34.90
2022-08-17T01:14:42.777Z,32.45
2022-08-17T01:17:28.559Z,31.63
2022-08-17T01:20:14.331Z,33.00
2022-08-17T01:23:01.104Z,33.45
2022-08-17T01:25:51.393Z,34.97
2022-08-17T01:28:53.625Z,33.65
2022-08-17T01:31:56.865Z,33.45
2022-08-17T01:34:43.933Z,32.97
2022-08-17T01:37:39.827Z,32.90
2022-08-17T01:40:39.171Z,34.60
2022-08-17T01:43:32.697Z,34.03
2022-08-17T01:46:28.852Z,32.38
2022-08-17T01:49:14.345Z,33.65
2022-08-17T01:52:09.753Z,36.05
2022-08-17T01:54:56.517Z,37.30
2022-08-17T01:57:45.438Z,29.17
2022-08-17T02:00:59.694Z,33.58
2022-08-17T02:03:37.766Z,31.38
2022-08-17T02:06:27.898Z,33.85
2022-08-17T02:09:16.479Z,31.08
2022-08-17T02:12:37.312Z,32.17
2022-08-17T02:15:12.410Z,31.38
2022-08-17T02:17:58.291Z,31.38
2022-08-17T02:20:44.427Z,31.40
2022-08-17T02:23:34.453Z,29.33
2022-08-17T02:26:23.927Z,23.70
2022-08-17T02:29:12.117Z,27.15
2022-08-17T02:31:58.622Z,25.27
2022-08-17T02:34:44.157Z,28.20
2022-08-17T02:37:30.506Z,28.25
2022-08-17T02:40:16.760Z,29.30
2022-08-17T02:43:18.597Z,30.08
2022-08-17T02:46:04.206Z,23.80
2022-08-17T02:48:50.092Z,26.35
2022-08-17T02:51:35.762Z,26.95
2022-08-17T02:54:40.591Z,24.98
2022-08-17T02:57:27.049Z,24.88
2022-08-17T03:00:18.006Z,29.13
2022-08-17T03:03:06.118Z,25.52
2022-08-17T03:05:51.711Z,27.48
2022-08-17T03:08:38.187Z,25.65
2022-08-17T03:11:24.060Z,24.27
2022-08-17T03:14:09.757Z,26.48
2022-08-17T03:16:55.687Z,24.83
2022-08-17T03:19:42.968Z,27.02
2022-08-17T03:22:36.761Z,25.63
2022-08-17T03:25:33.466Z,26.90
2022-08-17T03:28:21.644Z,25.27
2022-08-17T03:31:07.525Z,26.90
2022-08-17T03:33:53.206Z,28.38
2022-08-17T03:36:39.178Z,27.70
2022-08-17T03:39:24.948Z,25.35
2022-08-17T03:42:31.910Z,29.02
2022-08-17T03:45:42.837Z,25.95
2022-08-17T03:48:47.649Z,27.90
2022-08-17T03:51:51.790Z,32.72
2022-08-17T03:54:55.962Z,28.45
2022-08-17T03:57:41.778Z,35.17
2022-08-17T04:00:28.252Z,33.05
2022-08-17T04:03:14.608Z,32.20
2022-08-17T04:06:02.217Z,34.75
2022-08-17T04:08:48.192Z,31.58
2022-08-17T04:11:35.326Z,38.15
2022-08-17T04:14:21.219Z,34.33
2022-08-17T04:17:07.043Z,37.63
2022-08-17T04:19:53.768Z,36.58
2022-08-17T04:22:39.411Z,37.90
2022-08-17T04:25:27.354Z,36.45
2022-08-17T04:28:15.708Z,36.17
2022-08-17T04:31:02.127Z,36.85
2022-08-17T04:33:48.177Z,37.10
2022-08-17T04:36:33.754Z,37.42
2022-08-17T04:39:19.455Z,33.88
2022-08-17T04:42:16.953Z,37.10
2022-08-17T04:45:04.342Z,42.95
2022-08-17T04:47:50.184Z,36.05
2022-08-17T04:50:43.409Z,38.05
2022-08-17T04:53:30.217Z,39.97
2022-08-17T04:56:18.226Z,43.35
2022-08-17T04:59:10.341Z,48.85
2022-08-17T05:01:56.015Z,51.90
2022-08-17T05:04:42.109Z,57.50
2022-08-17T05:07:31.435Z,62.45
2022-08-17T05:10:17.386Z,53.80
2022-08-17T05:13:09.855Z,71.85
2022-08-17T05:16:01.461Z,65.97
2022-08-17T05:18:47.694Z,61.45
2022-08-17T05:21:33.489Z,54.20
2022-08-17T05:24:40.765Z,59.83
2022-08-17T05:27:25.414Z,54.20
2022-08-17T05:30:17.492Z,52.70
2022-08-17T05:33:13.006Z,50.22
2022-08-17T05:35:59.829Z,52.33
2022-08-17T05:38:45.558Z,56.38
2022-08-17T05:41:31.364Z,54.75
2022-08-17T05:44:17.187Z,53.03
2022-08-17T05:47:05.143Z,60.33
2022-08-17T05:49:55.608Z,61.28
2022-08-17T05:52:50.660Z,60.38
2022-08-17T05:55:48.800Z,56.40
2022-08-17T05:58:58.374Z,56.70
2022-08-17T06:01:49.585Z,54.95
2022-08-17T06:04:48.281Z,58.28
2022-08-17T06:07:53.766Z,54.15
2022-08-17T06:11:02.538Z,49.10
2022-08-17T06:14:09.269Z,53.45
2022-08-17T06:17:04.363Z,52.53
2022-08-17T06:19:57.579Z,47.50
2022-08-17T06:22:51.969Z,47.13
2022-08-17T06:25:45.474Z,43.85
2022-08-17T06:29:08.841Z,41.95
2022-08-17T06:34:52.531Z,38.00
2022-08-17T06:37:41.099Z,41.40
2022-08-17T06:40:45.683Z,37.50
2022-08-17T06:43:47.463Z,40.15
2022-08-17T06:46:43.577Z,39.92
2022-08-17T06:49:55.362Z,38.90
2022-08-17T06:52:59.498Z,34.70
2022-08-17T06:56:13.942Z,39.60
2022-08-17T06:59:00.953Z,38.60
2022-08-17T07:01:49.990Z,40.83
2022-08-17T07:04:35.985Z,38.88
2022-08-17T07:07:40.882Z,37.92
2022-08-17T07:10:29.265Z,40.80
2022-08-17T07:13:33.128Z,40.95
2022-08-17T07:16:32.387Z,40.42
2022-08-17T07:19:22.741Z,41.75
2022-08-17T07:22:26.274Z,41.78
2022-08-17T07:25:18.437Z,42.53
2022-08-17T07:28:07.792Z,41.17
2022-08-17T07:30:54.648Z,41.85
2022-08-17T07:33:57.718Z,41.42
2022-08-17T07:36:43.218Z,47.88
2022-08-17T07:39:29.211Z,44.30
2022-08-17T07:42:15.114Z,46.63
2022-08-17T07:45:23.036Z,42.85
2022-08-17T07:48:25.611Z,47.33
2022-08-17T07:51:19.041Z,42.85
2022-08-17T07:54:25.192Z,44.85
2022-08-17T07:57:12.181Z,48.17
2022-08-17T08:00:01.362Z,47.80
2022-08-17T08:03:00.663Z,49.65
2022-08-17T08:05:57.389Z,49.72
2022-08-17T08:08:50.445Z,48.22
2022-08-17T08:14:33.587Z,48.92
2022-08-17T08:17:25.518Z,44.40
2022-08-17T08:20:51.312Z,44.07
2022-08-17T08:23:27.391Z,40.65
2022-08-17T08:26:39.474Z,38.28
2022-08-17T08:29:54.355Z,36.58
2022-08-17T08:32:45.479Z,36.65
2022-08-17T08:35:39.578Z,34.00
2022-08-17T08:39:01.885Z,31.95
2022-08-17T08:42:02.374Z,32.58
2022-08-17T08:45:08.873Z,31.95
2022-08-17T08:48:23.168Z,31.08
2022-08-17T08:51:40.778Z,33.20
2022-08-17T08:54:44.353Z,33.78
2022-08-17T08:57:48.262Z,33.88
2022-08-17T09:00:40.670Z,37.65
2022-08-17T09:04:25.173Z,37.08
2022-08-17T09:07:36.752Z,34.90
2022-08-17T09:10:25.513Z,34.20
2022-08-17T09:13:29.764Z,33.60
2022-08-17T09:16:29.667Z,37.80
2022-08-17T09:19:20.914Z,35.10
2022-08-17T09:22:42.711Z,34.08
2022-08-17T09:25:33.149Z,31.95
2022-08-17T09:28:33.457Z,35.33
2022-08-17T09:31:24.652Z,35.38
2022-08-17T09:34:19.479Z,33.13
2022-08-17T09:37:42.438Z,34.33
2022-08-17T09:40:52.176Z,36.60
2022-08-17T09:44:08.506Z,33.50
2022-08-17T09:47:19.299Z,27.10
2022-08-17T09:51:04.093Z,18.45
2022-08-17T09:53:30.915Z,26.70
2022-08-17T09:56:40.001Z,19.30
2022-08-17T09:59:37.137Z,19.02
2022-08-17T10:02:51.622Z,21.15
2022-08-17T10:06:07.863Z,21.58
2022-08-17T10:09:22.168Z,17.77
2022-08-17T10:12:46.453Z,18.58
2022-08-17T10:15:54.779Z,20.05
2022-08-17T10:19:02.118Z,19.55
2022-08-17T10:22:32.362Z,22.98
2022-08-17T10:25:53.605Z,27.33
2022-08-17T10:28:47.768Z,25.92
2022-08-17T10:31:42.339Z,22.50
2022-08-17T10:34:56.946Z,18.83
2022-08-17T10:38:08.757Z,14.15
2022-08-17T10:41:24.667Z,12.98
2022-08-17T10:44:48.355Z,12.82
2022-08-17T10:50:59.884Z,10.90
2022-08-17T10:53:49.439Z,9.48
2022-08-17T10:56:49.620Z,8.43
2022-08-17T10:59:35.511Z,8.95
2022-08-17T11:02:26.074Z,9.45
2022-08-17T11:05:31.653Z,10.68
2022-08-17T11:08:21.127Z,11.25
2022-08-17T11:11:36.077Z,11.00
2022-08-17T11:14:34.899Z,12.35
2022-08-17T11:17:58.176Z,13.90
2022-08-17T11:21:08.787Z,14.98
2022-08-17T11:24:43.397Z,16.73
2022-08-17T11:27:35.051Z,14.52
2022-08-17T11:30:40.894Z,14.82
2022-08-17T11:33:29.222Z,15.05
2022-08-17T11:36:14.768Z,16.85
2022-08-17T11:39:31.755Z,15.60
2022-08-17T11:42:55.075Z,14.63
2022-08-17T11:49:00.874Z,16.17
2022-08-17T11:52:11.283Z,15.45
2022-08-17T11:55:12.420Z,16.17
2022-08-17T11:58:25.584Z,17.92
2022-08-17T12:01:50.333Z,18.52
2022-08-17T12:04:36.352Z,17.40
2022-08-17T12:07:23.317Z,16.38
2022-08-17T12:10:12.205Z,17.33
2022-08-17T12:12:59.625Z,16.50
2022-08-17T12:15:49.727Z,15.77
2022-08-17T12:18:39.998Z,15.13
2022-08-17T12:21:51.414Z,13.98
2022-08-17T12:25:16.463Z,14.90
2022-08-17T12:28:06.046Z,14.82
2022-08-17T12:30:54.225Z,13.43
2022-08-17T12:33:44.663Z,13.80
2022-08-17T12:36:32.044Z,13.77
2022-08-17T12:39:25.250Z,12.20
2022-08-17T12:42:23.786Z,11.68
2022-08-17T12:45:32.045Z,9.98
2022-08-17T12:48:27.352Z,8.98
2022-08-17T12:51:13.289Z,8.98
2022-08-17T12:53:59.302Z,8.63
2022-08-17T12:56:46.412Z,8.00
2022-08-17T12:59:33.400Z,8.45
2022-08-17T13:02:28.325Z,7.32
2022-08-17T13:05:30.495Z,8.70
2022-08-17T13:08:19.886Z,8.18
2022-08-17T13:11:25.576Z,7.50
2022-08-17T13:14:11.766Z,8.70
2022-08-17T13:17:00.435Z,8.40
2022-08-17T13:19:51.118Z,8.73
2022-08-17T13:22:37.125Z,8.32
2022-08-17T13:25:23.533Z,8.10
2022-08-17T13:28:18.917Z,8.10
2022-08-17T13:31:52.379Z,8.13
2022-08-17T13:35:12.921Z,8.45
2022-08-17T13:38:11.769Z,8.57
2022-08-17T13:40:57.490Z,8.20
2022-08-17T13:43:45.857Z,7.13
2022-08-17T13:46:33.389Z,7.60
2022-08-17T13:49:20.881Z,6.82
2022-08-17T13:52:08.544Z,7.25
2022-08-17T13:54:55.649Z,6.68
2022-08-17T13:57:46.728Z,6.03
2022-08-17T14:00:33.767Z,7.10
2022-08-17T14:03:20.471Z,7.03
2022-08-17T14:06:06.633Z,6.63
2022-08-17T14:08:55.723Z,6.57
2022-08-17T14:11:42.334Z,6.63
2022-08-17T14:14:29.441Z,6.60
2022-08-17T14:17:15.865Z,6.50
2022-08-17T14:20:01.791Z,7.30
2022-08-17T14:22:53.892Z,6.70
2022-08-17T14:25:40.154Z,6.70
2022-08-17T14:28:25.499Z,7.50
2022-08-17T14:31:13.474Z,6.90
2022-08-17T14:33:59.525Z,6.97
2022-08-17T14:36:48.427Z,7.20
2022-08-17T14:39:34.581Z,7.13
2022-08-17T14:42:20.574Z,6.65
2022-08-17T14:45:30.186Z,7.18
2022-08-17T14:48:15.900Z,7.63
2022-08-17T14:51:01.589Z,6.97
2022-08-17T14:53:48.583Z,6.60
2022-08-17T14:56:35.378Z,6.50
2022-08-17T14:59:23.916Z,6.93
2022-08-17T15:02:10.795Z,6.45
2022-08-17T15:05:05.796Z,5.43
2022-08-17T15:07:53.447Z,7.32
2022-08-17T15:10:39.300Z,7.90
2022-08-17T15:13:26.557Z,7.70
2022-08-17T15:16:13.783Z,8.27
2022-08-17T15:18:59.885Z,9.32
2022-08-17T15:21:47.058Z,9.40
2022-08-17T15:24:33.660Z,9.48
2022-08-17T15:27:32.196Z,10.05
2022-08-17T15:30:19.240Z,8.80
2022-08-17T15:33:04.950Z,10.02
2022-08-17T15:35:51.965Z,10.30
2022-08-17T15:38:40.910Z,9.00
2022-08-17T15:41:31.197Z,9.77
2022-08-17T15:44:17.060Z,9.57
2022-08-17T15:47:02.745Z,11.15
2022-08-17T15:49:48.790Z,11.25
2022-08-17T15:52:40.512Z,10.85
2022-08-17T15:55:28.472Z,10.63
2022-08-17T15:58:14.481Z,11.40
2022-08-17T16:01:16.630Z,11.23
2022-08-17T16:04:29.920Z,10.75
2022-08-17T16:07:17.556Z,10.57
2022-08-17T16:10:06.153Z,12.23
2022-08-17T16:12:51.883Z,11.90
2022-08-17T16:15:38.124Z,12.73
2022-08-17T16:18:30.750Z,12.25
2022-08-17T16:21:25.721Z,11.50
2022-08-17T16:24:13.136Z,11.73
2022-08-17T16:26:59.789Z,11.57
2022-08-17T16:29:46.393Z,11.20
2022-08-17T16:32:37.677Z,11.68
2022-08-17T16:35:26.907Z,11.45
2022-08-17T16:38:14.553Z,9.48
2022-08-17T16:41:00.438Z,10.00
2022-08-17T16:43:47.141Z,8.30
2022-08-17T16:46:33.537Z,9.65
2022-08-17T16:49:35.574Z,9.05
2022-08-17T16:52:32.494Z,8.35
2022-08-17T16:55:21.842Z,8.98
2022-08-17T16:58:08.825Z,9.10
2022-08-17T17:00:57.182Z,8.57
2022-08-17T17:03:46.742Z,9.27
2022-08-17T17:06:54.352Z,9.73
2022-08-17T17:09:42.017Z,9.65
2022-08-17T17:13:01.273Z,8.63
2022-08-17T17:15:55.467Z,8.93
2022-08-17T17:19:26.309Z,8.13
2022-08-17T17:22:26.890Z,9.25
2022-08-17T17:25:21.564Z,8.27
2022-08-17T17:28:27.856Z,9.25
2022-08-17T17:31:21.075Z,8.95
2022-08-17T17:34:10.321Z,8.40
2022-08-17T17:37:02.139Z,9.00
2022-08-17T17:39:54.857Z,8.98
2022-08-17T17:45:56.473Z,9.55
2022-08-17T17:48:42.042Z,9.05
2022-08-17T17:52:09.924Z,9.00
2022-08-17T17:55:02.973Z,8.73
2022-08-17T17:58:10.742Z,8.55
2022-08-17T18:01:22.493Z,10.00
2022-08-17T18:04:21.301Z,9.73
2022-08-17T18:07:10.151Z,10.70
2022-08-17T18:10:05.702Z,11.52
2022-08-17T18:13:15.479Z,11.07
2022-08-17T18:16:04.025Z,10.27
2022-08-17T18:18:52.393Z,9.70
2022-08-17T18:21:44.453Z,9.90
2022-08-17T18:24:33.966Z,10.57
2022-08-17T18:27:25.595Z,10.48
2022-08-17T18:30:14.596Z,10.70
2022-08-17T18:33:30.078Z,10.40
2022-08-17T18:36:34.113Z,10.32
2022-08-17T18:39:26.565Z,9.57
2022-08-17T18:42:26.362Z,11.10
2022-08-17T18:45:13.797Z,10.65
2022-08-17T18:48:00.180Z,10.60
2022-08-17T18:50:46.725Z,9.38
2022-08-17T18:53:36.362Z,8.75
2022-08-17T18:56:35.470Z,7.75
2022-08-17T18:59:24.348Z,8.27
2022-08-17T19:02:44.180Z,9.30
2022-08-17T19:05:40.966Z,9.02
2022-08-17T19:08:29.847Z,8.07
2022-08-17T19:11:27.059Z,7.93
2022-08-17T19:14:16.690Z,6.90
2022-08-17T19:17:09.927Z,6.72
2022-08-17T19:20:17.171Z,7.03
2022-08-17T19:23:10.877Z,6.40
2022-08-17T19:26:01.668Z,7.45
2022-08-17T19:29:02.303Z,7.68
2022-08-17T19:31:48.569Z,8.18
2022-08-17T19:34:36.990Z,7.55
2022-08-17T19:37:49.482Z,8.05
2022-08-17T19:41:01.862Z,7.32
2022-08-17T19:44:32.715Z,7.50
2022-08-17T19:47:54.212Z,7.68
2022-08-17T19:50:57.581Z,8.82
2022-08-17T19:54:08.978Z,8.50
2022-08-17T19:57:13.896Z,7.60
2022-08-17T20:00:06.615Z,7.68
2022-08-17T20:03:06.091Z,7.70
2022-08-17T20:06:14.054Z,7.80
2022-08-17T20:09:29.656Z,7.15
2022-08-17T20:12:34.830Z,7.10
2022-08-17T20:15:27.169Z,7.47
2022-08-17T20:18:36.324Z,8.73
2022-08-17T20:21:38.991Z,8.55
2022-08-17T20:24:24.607Z,9.20
2022-08-17T20:27:31.311Z,9.32
2022-08-17T20:30:24.252Z,10.10
2022-08-17T20:33:26.322Z,11.63
2022-08-17T20:36:19.378Z,10.27
2022-08-17T20:39:05.435Z,9.05
2022-08-17T20:42:28.123Z,9.52
2022-08-17T20:45:26.432Z,8.85
2022-08-17T20:48:36.343Z,8.73
2022-08-17T20:51:38.529Z,8.77
2022-08-17T20:54:36.627Z,8.43
2022-08-17T20:57:31.830Z,8.98
2022-08-17T21:00:29.726Z,9.63
2022-08-17T21:03:24.262Z,10.30
2022-08-17T21:06:17.199Z,9.95
2022-08-17T21:09:12.703Z,10.02
2022-08-17T21:12:04.647Z,8.80
2022-08-17T21:15:01.710Z,10.55
2022-08-17T21:17:59.135Z,9.23
2022-08-17T21:21:02.979Z,8.77
2022-08-17T21:24:30.676Z,9.50
2022-08-17T21:27:26.136Z,9.88
2022-08-17T21:30:29.960Z,8.30
2022-08-17T21:33:31.800Z,9.10
2022-08-17T21:36:25.842Z,8.80
2022-08-17T21:39:19.388Z,9.05
2022-08-17T21:42:12.554Z,9.73
2022-08-17T21:45:30.169Z,9.52
2022-08-17T21:48:24.512Z,9.45
2022-08-17T21:51:29.756Z,9.27
2022-08-17T21:54:24.338Z,9.77
2022-08-17T21:57:20.979Z,9.50
2022-08-17T22:00:17.247Z,9.55
2022-08-17T22:03:06.967Z,8.23
2022-08-17T22:05:52.817Z,9.70
2022-08-17T22:08:38.541Z,9.50
2022-08-17T22:11:24.155Z,9.07
2022-08-17T22:14:18.758Z,9.15
2022-08-17T22:17:38.086Z,9.02
2022-08-17T22:20:24.313Z,8.85
2022-08-17T22:23:31.930Z,9.00
2022-08-17T22:26:20.125Z,8.93
2022-08-17T22:29:05.544Z,8.55
2022-08-17T22:31:56.254Z,8.82
2022-08-17T22:34:42.142Z,8.40
2022-08-17T22:37:29.430Z,8.90
2022-08-17T22:40:26.485Z,8.52
2022-08-17T22:43:13.368Z,8.73
2022-08-17T22:46:00.259Z,8.32
2022-08-17T22:48:50.138Z,7.57
2022-08-17T22:51:42.793Z,7.68
2022-08-17T22:54:47.552Z,8.02
2022-08-17T22:57:54.106Z,8.10
2022-08-17T23:00:44.345Z,8.73
2022-08-17T23:03:30.137Z,8.27
2022-08-17T23:06:16.047Z,7.40
2022-08-17T23:12:26.547Z,10.43
2022-08-17T23:15:33.814Z,10.70
2022-08-17T23:18:38.504Z,10.30
2022-08-17T23:21:29.472Z,8.63
2022-08-17T23:24:21.365Z,8.60
2022-08-17T23:27:07.564Z,8.93
2022-08-17T23:29:55.709Z,9.23
2022-08-17T23:32:53.417Z,7.70
2022-08-17T23:35:41.111Z,7.68
2022-08-17T23:38:27.726Z,7.30
2022-08-17T23:41:20.086Z,7.53
2022-08-17T23:44:07.203Z,7.53
2022-08-17T23:46:53.785Z,7.22
2022-08-17T23:49:40.521Z,8.15
2022-08-17T23:52:27.957Z,7.65
2022-08-17T23:55:14.576Z,7.13
2022-08-17T23:58:04.113Z,7.38
